Home > Products > Valid Products > MTR

000
SAUS43 KMQT 282003 COR
MTRP53
METAR KP53 281956Z AUTO 36003KT 11/07 A3010 RMK AO1 SLP198 T01060067





000
SAUS43 KMQT 281954
MTRP59
METAR KP59 281951Z AUTO VRB04KT 14/09 A3007 RMK AO1 SLP187 T01440089





000
SAUS43 KMQT 281903 COR
MTRP53
METAR KP53 281856Z AUTO 02004KT 10/07 A3013 RMK AO1 SLP206 T01000067





000
SAUS43 KMQT 281854
MTRP59
METAR KP59 281851Z AUTO VRB06KT 14/09 A3010 RMK AO1 SLP196 T01390089





000
SAUS43 KMQT 281854
MTRP59
METAR KP59 281851Z AUTO VRB06KT 14/09 A3010 RMK AO1 SLP196 T01390089





000
SAUS43 KMQT 281804 COR
MTRP53
METAR KP53 281756Z AUTO 01005KT 09/06 A3015 RMK AO1 SLP214 T00890061
10106 20061 58010





000
SAUS43 KMQT 281804 COR
MTRP53
METAR KP53 281756Z AUTO 01005KT 09/06 A3015 RMK AO1 SLP214 T00890061
10106 20061 58010





000
SAUS43 KMQT 281752
MTRP59
METAR KP59 281751Z AUTO 19007KT 160V230 12/08 A3014 RMK AO1 SLP211
T01170078 10117 20083 58014





000
SAUS43 KMQT 281752
MTRP59
METAR KP59 281751Z AUTO 19007KT 160V230 12/08 A3014 RMK AO1 SLP211
T01170078 10117 20083 58014





000
SAUS43 KMQT 281703 COR
MTRP53
METAR KP53 281656Z AUTO 04007KT 09/06 A3018 RMK AO1 SLP223 T00890056





000
SAUS43 KMQT 281703 COR
MTRP53
METAR KP53 281656Z AUTO 04007KT 09/06 A3018 RMK AO1 SLP223 T00890056





000
SAUS43 KMQT 281654
MTRP59
METAR KP59 281651Z AUTO 20006KT 11/07 A3016 RMK AO1 SLP218 T01060072





000
SAUS43 KMQT 281604 COR
MTRP53
METAR KP53 281556Z AUTO 05008KT 09/07 A3019 RMK AO1 SLP225 T00940067





000
SAUS43 KMQT 281604 COR
MTRP53
METAR KP53 281556Z AUTO 05008KT 09/07 A3019 RMK AO1 SLP225 T00940067





000
SAUS43 KMQT 281553
MTRP59
METAR KP59 281551Z AUTO 17007KT 130V220 10/07 A3018 RMK AO1 SLP223
T01000067





000
SAUS43 KMQT 281553
MTRP59
METAR KP59 281551Z AUTO 17007KT 130V220 10/07 A3018 RMK AO1 SLP223
T01000067





000
SAUS43 KMQT 281504 COR
MTRP53
METAR KP53 281456Z AUTO 02003KT 09/07 A3018 RMK AO1 SLP224 T00890072
50001





000
SAUS43 KMQT 281504 COR
MTRP53
METAR KP53 281456Z AUTO 02003KT 09/07 A3018 RMK AO1 SLP224 T00890072
50001





000
SAUS43 KMQT 281458
MTRP59
METAR KP59 281451Z AUTO 15008KT 09/06 A3019 RMK AO1 SLP224 T00890061
50000





000
SAUS43 KMQT 281458
MTRP59
METAR KP59 281451Z AUTO 15008KT 09/06 A3019 RMK AO1 SLP224 T00890061
50000





000
SAUS43 KMQT 281403 COR
MTRP53
METAR KP53 281356Z AUTO 06003KT 08/07 A3019 RMK AO1 SLP226 T00780067





000
SAUS43 KMQT 281359
MTRP59
METAR KP59 281351Z AUTO 16009G15KT 130V190 08/06 A3019 RMK AO1
SLP226 T00830061





000
SAUS43 KMQT 281303 COR
MTRP53
METAR KP53 281256Z AUTO 05004KT 07/06 A3019 RMK AO1 SLP227 T00720056





000
SAUS43 KMQT 281259
MTRP59
METAR KP59 281251Z AUTO 16005KT 08/07 A3020 RMK AO1 SLP228 T00830067





000
SAUS43 KMQT 281203 COR
MTRP53
METAR KP53 281156Z AUTO 01004KT 06/05 A3018 RMK AO1 SLP222 70025
T00610050 10089 20061 51017





000
SAUS43 KMQT 281158
MTRP59
METAR KP59 281151Z AUTO VRB03KT 09/06 A3019 RMK AO1 SLP223 T00890061
10089 20061 51014





000
SAUS43 KMQT 281103 COR
MTRP53
METAR KP53 281056Z AUTO 33005KT 07/06 A3016 RMK AO1 SLP217 T00670056





000
SAUS43 KMQT 281059
MTRP59
METAR KP59 281051Z AUTO 00000KT 07/04 A3017 RMK AO1 SLP219 T00720044





000
SAUS43 KMQT 281004 COR
MTRP53
METAR KP53 280956Z AUTO 32006KT 07/06 A3014 RMK AO1 SLP210 T00720061





000
SAUS43 KMQT 281004 COR
MTRP53
METAR KP53 280956Z AUTO 32006KT 07/06 A3014 RMK AO1 SLP210 T00720061





000
SAUS43 KMQT 281003 COR
MTRP53
METAR KP53 280956Z AUTO 32006KT 07/06 A3014 RMK AO1 SLP210 T00720061





000
SAUS43 KMQT 281003 COR
MTRP53
METAR KP53 280956Z AUTO 32006KT 07/06 A3014 RMK AO1 SLP210 T00720061





000
SAUS43 KMQT 280957
MTRP59
METAR KP59 280951Z AUTO VRB03KT 07/04 A3016 RMK AO1 SLP218 T00720044





000
SAUS43 KMQT 280904 COR
MTRP53
METAR KP53 280856Z AUTO 33008KT 08/06 A3013 RMK AO1 SLP203 T00780061
53017





000
SAUS43 KMQT 280904 COR
MTRP53
METAR KP53 280856Z AUTO 33008KT 08/06 A3013 RMK AO1 SLP203 T00780061
53017





000
SAUS43 KMQT 280903 COR
MTRP53
METAR KP53 280856Z AUTO 33008KT 08/06 A3013 RMK AO1 SLP203 T00780061
53017





000
SAUS43 KMQT 280857
MTRP59
METAR KP59 280851Z AUTO VRB04KT 07/04 A3015 RMK AO1 SLP210 T00670039
51007





000
SAUS43 KMQT 280857
MTRP59
METAR KP59 280851Z AUTO VRB04KT 07/04 A3015 RMK AO1 SLP210 T00670039
51007





000
SAUS43 KMQT 280805 COR
MTRP53
METAR KP53 280756Z AUTO 03004KT 08/07 A3010 RMK AO1 SLP195 T00830072





000
SAUS43 KMQT 280804 COR
MTRP53
METAR KP53 280756Z AUTO 03004KT 08/07 A3010 RMK AO1 SLP195 T00830072





000
SAUS43 KMQT 280804 COR
MTRP53
METAR KP53 280756Z AUTO 03004KT 08/07 A3010 RMK AO1 SLP195 T00830072





000
SAUS43 KMQT 280803 COR
MTRP53
METAR KP53 280756Z AUTO 03004KT 08/07 A3010 RMK AO1 SLP195 T00830072





000
SAUS43 KMQT 280803 COR
MTRP53
METAR KP53 280756Z AUTO 03004KT 08/07 A3010 RMK AO1 SLP195 T00830072





000
SAUS43 KMQT 280758
MTRP59
METAR KP59 280751Z AUTO VRB03KT 06/04 A3014 RMK AO1 SLP210 T00610039





000
SAUS43 KMQT 280705 COR
MTRP53
METAR KP53 280656Z AUTO 02006KT 08/07 A3009 RMK AO1 SLP193 T00830072





000
SAUS43 KMQT 280705 COR
MTRP53
METAR KP53 280656Z AUTO 02006KT 08/07 A3009 RMK AO1 SLP193 T00830072





000
SAUS43 KMQT 280704 COR
MTRP53
METAR KP53 280656Z AUTO 02006KT 08/07 A3009 RMK AO1 SLP193 T00830072





000
SAUS43 KMQT 280704 COR
MTRP53
METAR KP53 280656Z AUTO 02006KT 08/07 A3009 RMK AO1 SLP193 T00830072





000
SAUS43 KMQT 280659
MTRP59
METAR KP59 280651Z AUTO 00000KT 07/04 A3014 RMK AO1 SLP207 T00670039





000
SAUS43 KMQT 280603 COR
MTRP53
METAR KP53 280556Z AUTO 04007KT 09/07 A3008 RMK AO1 SLP187 T00890072
10161 20089 53025





000
SAUS43 KMQT 280603 COR
MTRP53
METAR KP53 280556Z AUTO 04007KT 09/07 A3008 RMK AO1 SLP187 T00890072
10161 20089 53025





000
SAUS43 KMQT 280558
MTRP59
METAR KP59 280551Z AUTO VRB04KT 07/04 A3012 RMK AO1 SLP202 T00670039
10133 20067 52026





000
SAUS43 KMQT 280558
MTRP59
METAR KP59 280551Z AUTO VRB04KT 07/04 A3012 RMK AO1 SLP202 T00670039
10133 20067 52026





000
SAUS43 KMQT 280505 COR
MTRP53
METAR KP53 280456Z AUTO 01004KT 11/09 A3005 RMK AO1 SLP177 T01110094
402220067





000
SAUS43 KMQT 280504 COR
MTRP53
METAR KP53 280456Z AUTO 01004KT 11/09 A3005 RMK AO1 SLP177 T01110094
402220067





000
SAUS43 KMQT 280503 COR
MTRP53
METAR KP53 280456Z AUTO 01004KT 11/09 A3005 RMK AO1 SLP177 T01110094
402220067





000
SAUS43 KMQT 280503 COR
MTRP53
METAR KP53 280456Z AUTO 01004KT 11/09 A3005 RMK AO1 SLP177 T01110094
402220067





000
SAUS43 KMQT 280457
MTRP59
METAR KP59 280451Z AUTO 14005KT 07/04 A3010 RMK AO1 SLP193 T00720039
402000039





000
SAUS43 KMQT 280403 COR
MTRP53
METAR KP53 280356Z AUTO 00000KT 12/11 A3002 RMK AO1 SLP167 T01170106





000
SAUS43 KMQT 280403 COR
MTRP53
METAR KP53 280356Z AUTO 00000KT 12/11 A3002 RMK AO1 SLP167 T01170106





000
SAUS43 KMQT 280359
MTRP59
METAR KP59 280351Z AUTO 14007KT 090V160 09/04 A3007 RMK AO1 SLP181
T00890044





000
SAUS43 KMQT 280305 COR
MTRP53
METAR KP53 280256Z AUTO 00000KT 12/11 A3000 RMK AO1 SLP161 T01220106
53020





000
SAUS43 KMQT 280305 COR
MTRP53
METAR KP53 280256Z AUTO 00000KT 12/11 A3000 RMK AO1 SLP161 T01220106
53020





000
SAUS43 KMQT 280304 COR
MTRP53
METAR KP53 280256Z AUTO 00000KT 12/11 A3000 RMK AO1 SLP161 T01220106
53020





000
SAUS43 KMQT 280259
MTRP59
METAR KP59 280251Z AUTO 12006KT 11/06 A3005 RMK AO1 SLP172 T01110056
53041





000
SAUS43 KMQT 280259
MTRP59
METAR KP59 280251Z AUTO 12006KT 11/06 A3005 RMK AO1 SLP172 T01110056
53041





000
SAUS43 KMQT 280204 COR
MTRP53
METAR KP53 280156Z AUTO 00000KT 13/11 A2997 RMK AO1 SLP153 T01280106





000
SAUS43 KMQT 280158
MTRP59
METAR KP59 280151Z AUTO 02005KT 12/06 A3000 RMK AO1 SLP158 T01170061





000
SAUS43 KMQT 280103 COR
MTRP53
METAR KP53 280056Z AUTO 00000KT 15/11 A2995 RMK AO1 SLP146 T01500111





000
SAUS43 KMQT 280058
MTRP59
METAR KP59 280051Z AUTO 36005KT 11/07 A2997 RMK AO1 SLP150 T01110072





000
SAUS43 KMQT 280003 COR
MTRP53
METAR KP53 272356Z AUTO 01004KT 16/12 A2994 RMK AO1 SLP141 T01610117
10222 20128 53024





000
SAUS43 KMQT 280003 COR
MTRP53
METAR KP53 272356Z AUTO 01004KT 16/12 A2994 RMK AO1 SLP141 T01610117
10222 20128 53024





000
SAUS43 KMQT 272357
MTRP59
METAR KP59 272351Z AUTO 01004KT 13/08 A2992 RMK AO1 SLP134 T01280083
10200 20094 51026





000
SAUS43 KMQT 272357
MTRP59
METAR KP59 272351Z AUTO 01004KT 13/08 A2992 RMK AO1 SLP134 T01280083
10200 20094 51026





000
SAUS43 KMQT 272304 COR
MTRP53
METAR KP53 272256Z AUTO 00000KT 16/12 A2990 RMK AO1 SLP127 T01610122





000
SAUS43 KMQT 272258
MTRP59
METAR KP59 272251Z AUTO VRB03KT 18/12 A2988 RMK AO1 SLP119 T01830117





000
SAUS43 KMQT 272258
MTRP59
METAR KP59 272251Z AUTO VRB03KT 18/12 A2988 RMK AO1 SLP119 T01830117





000
SAUS43 KMQT 272204 COR
MTRP53
METAR KP53 272156Z AUTO 00000KT 18/13 A2988 RMK AO1 SLP120 T01780128





000
SAUS43 KMQT 272158
MTRP59
METAR KP59 272151Z AUTO 35013KT 11/08 A2991 RMK AO1 SLP130 T01110078





000
SAUS43 KMQT 272104 COR
MTRP53
METAR KP53 272056Z AUTO VRB03KT 21/14 A2987 RMK AO1 SLP115 T02110144
51016





000
SAUS43 KMQT 272058
MTRP59
METAR KP59 272051Z AUTO 36012KT 16/09 A2984 RMK AO1 SLP108 T01560094
53019





000
SAUS43 KMQT 272058
MTRP59
METAR KP59 272051Z AUTO 36012KT 16/09 A2984 RMK AO1 SLP108 T01560094
53019





000
SAUS43 KMQT 272004 COR
MTRP53
METAR KP53 271956Z AUTO VRB05KT 20/14 A2986 RMK AO1 SLP113 T02000139





000
SAUS43 KMQT 271959
MTRP59
METAR KP59 271951Z AUTO 36011KT 14/09 A2982 RMK AO1 SLP101 T01440094





000
SAUS43 KMQT 271904 COR
MTRP53
METAR KP53 271856Z AUTO 00000KT 14/12 A2984 RMK AO1 SLP107 T01440122





000
SAUS43 KMQT 271904 COR
MTRP53
METAR KP53 271856Z AUTO 00000KT 14/12 A2984 RMK AO1 SLP107 T01440122





000
SAUS43 KMQT 271857
MTRP59
METAR KP59 271851Z AUTO 36013KT 13/09 A2980 RMK AO1 SLP096 T01330089





000
SAUS43 KMQT 271803 COR
MTRP53
METAR KP53 271756Z AUTO 00000KT 16/13 A2982 RMK AO1 SLP100 60025
T01560128 10156 20078 51019





000
SAUS43 KMQT 271803 COR
MTRP53
METAR KP53 271756Z AUTO 00000KT 16/13 A2982 RMK AO1 SLP100 60025
T01560128 10156 20078 51019





000
SAUS43 KMQT 271758
MTRP59
METAR KP59 271751Z AUTO 35012KT 16/10 A2978 RMK AO1 SLP088 T01560100
10194 20067 51015





000
SAUS43 KMQT 271704 COR
MTRP53
METAR KP53 271656Z AUTO 10004KT 13/12 A2980 RMK AO1 SLP096 P0003
T01330117





000
SAUS43 KMQT 271704 COR
MTRP53
METAR KP53 271656Z AUTO 10004KT 13/12 A2980 RMK AO1 SLP096 P0003
T01330117





000
SAUS43 KMQT 271658
MTRP59
METAR KP59 271651Z AUTO 34010G15KT 18/12 A2977 RMK AO1 SLP082
T01780117





000
SAUS43 KMQT 271604 COR
MTRP53
METAR KP53 271556Z AUTO 32010KT 14/11 A2978 RMK AO1 SLP089 P0010
T01390111





000
SAUS43 KMQT 271557
MTRP59
METAR KP59 271551Z AUTO 33006KT 18/12 A2976 RMK AO1 SLP077 T01780117





000
SAUS43 KMQT 271503 COR
MTRP53
METAR KP53 271456Z AUTO 31011KT 13/11 A2976 RMK AO1 SLP081 P0007
60012 T01280106 52021





000
SAUS43 KMQT 271457
MTRP59
METAR KP59 271451Z AUTO VRB06KT 17/12 A2974 RMK AO1 SLP072 T01720122
50008





000
SAUS43 KMQT 271404 COR
MTRP53
METAR KP53 271356Z AUTO 33011KT 09/08 A2974 RMK AO1 SLP074 P0003
T00890078





000
SAUS43 KMQT 271357
MTRP59
METAR KP59 271351Z AUTO 35005KT 12/10 A2974 RMK AO1 SLP074 T01220100





000
SAUS43 KMQT 271357
MTRP59
METAR KP59 271351Z AUTO 35005KT 12/10 A2974 RMK AO1 SLP074 T01220100





000
SAUS43 KMQT 271303 COR
MTRP53
METAR KP53 271256Z AUTO 34011G18KT 09/07 A2972 RMK AO1 SLP069 P0002
T00890072





000
SAUS43 KMQT 271303 COR
MTRP53
METAR KP53 271256Z AUTO 34011G18KT 09/07 A2972 RMK AO1 SLP069 P0002
T00890072





000
SAUS43 KMQT 271258
MTRP59
METAR KP59 271251Z AUTO 00000KT 08/07 A2973 RMK AO1 SLP072 T00830067





000
SAUS43 KMQT 271258
MTRP59
METAR KP59 271251Z AUTO 00000KT 08/07 A2973 RMK AO1 SLP072 T00830067





000
SAUS43 KMQT 271203 COR
MTRP53
METAR KP53 271156Z AUTO 33012KT 08/06 A2970 RMK AO1 SLP061 P0003
60019 70064 T00780061 10083 20067 53022





000
SAUS43 KMQT 271203 COR
MTRP53
METAR KP53 271156Z AUTO 33012KT 08/06 A2970 RMK AO1 SLP061 P0003
60019 70064 T00780061 10083 20067 53022





000
SAUS43 KMQT 271157
MTRP59
METAR KP59 271151Z AUTO 35005KT 07/06 A2972 RMK AO1 SLP067 60023
70038 T00670056 10089 20044 53006





000
SAUS43 KMQT 271157
MTRP59
METAR KP59 271151Z AUTO 35005KT 07/06 A2972 RMK AO1 SLP067 60023
70038 T00670056 10089 20044 53006





000
SAUS43 KMQT 271103 COR
MTRP53
METAR KP53 271056Z AUTO 01006KT 08/06 A2967 RMK AO1 SLP052 P0006
T00780061





000
SAUS43 KMQT 271057
MTRP59
METAR KP59 271051Z AUTO 34006KT 07/06 A2971 RMK AO1 SLP065 T00670061





000
SAUS43 KMQT 271005 COR
MTRP53
METAR KP53 270956Z AUTO 32009KT 07/05 A2965 RMK AO1 SLP045 P0009
T00670050





000
SAUS43 KMQT 271005 COR
MTRP53
METAR KP53 270956Z AUTO 32009KT 07/05 A2965 RMK AO1 SLP045 P0009
T00670050





000
SAUS43 KMQT 271004 COR
MTRP53
METAR KP53 270956Z AUTO 32009KT 07/05 A2965 RMK AO1 SLP045 P0009
T00670050





000
SAUS43 KMQT 271003 COR
MTRP53
METAR KP53 270956Z AUTO 32009KT 07/05 A2965 RMK AO1 SLP045 P0009
T00670050





000
SAUS43 KMQT 271003 COR
MTRP53
METAR KP53 270956Z AUTO 32009KT 07/05 A2965 RMK AO1 SLP045 P0009
T00670050





000
SAUS43 KMQT 270957
MTRP59
METAR KP59 270951Z AUTO 04003KT 06/05 A2970 RMK AO1 SLP058 P0004
T00610050





000
SAUS43 KMQT 270905 COR
MTRP53
METAR KP53 270856Z AUTO 30004KT 07/05 A2963 RMK AO1 SLP038 P0001
60001 T00670050 58000





000
SAUS43 KMQT 270904 COR
MTRP53
METAR KP53 270856Z AUTO 30004KT 07/05 A2963 RMK AO1 SLP038 P0001
60001 T00670050 58000





000
SAUS43 KMQT 270904 COR
MTRP53
METAR KP53 270856Z AUTO 30004KT 07/05 A2963 RMK AO1 SLP038 P0001
60001 T00670050 58000





000
SAUS43 KMQT 270857
MTRP59
METAR KP59 270851Z AUTO 36004KT 05/04 A2970 RMK AO1 SLP059 P0006
60019 T00500044 55000





000
SAUS43 KMQT 270857
MTRP59
METAR KP59 270851Z AUTO 36004KT 05/04 A2970 RMK AO1 SLP059 P0006
60019 T00500044 55000





000
SAUS43 KMQT 270805 COR
MTRP53
METAR KP53 270756Z AUTO 00000KT 08/06 A2963 RMK AO1 SLP037 T00780056





000
SAUS43 KMQT 270804 COR
MTRP53
METAR KP53 270756Z AUTO 00000KT 08/06 A2963 RMK AO1 SLP037 T00780056





000
SAUS43 KMQT 270758
MTRP59
METAR KP59 270751Z AUTO 36007KT 04/04 A2969 RMK AO1 SLP058 P0003
T00440039





000
SAUS43 KMQT 270758
MTRP59
METAR KP59 270751Z AUTO 36007KT 04/04 A2969 RMK AO1 SLP058 P0003
T00440039





000
SAUS43 KMQT 270704 COR
MTRP53
METAR KP53 270656Z AUTO 32006KT 08/06 A2964 RMK AO1 SLP040 T00780061





000
SAUS43 KMQT 270659
MTRP59
METAR KP59 270651Z AUTO 35006KT 06/04 A2968 RMK AO1 SLP056 P0010
T00560044





000
SAUS43 KMQT 270659
MTRP59
METAR KP59 270651Z AUTO 35006KT 06/04 A2968 RMK AO1 SLP056 P0010
T00560044





000
SAUS43 KMQT 270603 COR
MTRP53
METAR KP53 270556Z AUTO 05003KT 08/06 A2963 RMK AO1 SLP037 60039
T00780061 10094 20072 56025





000
SAUS43 KMQT 270603 COR
MTRP53
METAR KP53 270556Z AUTO 05003KT 08/06 A2963 RMK AO1 SLP037 60039
T00780061 10094 20072 56025





000
SAUS43 KMQT 270558
MTRP59
METAR KP59 270551Z AUTO 00000KT 04/04 A2970 RMK AO1 SLP060 P0008
60015 T00440039 10083 20039 58014





000
SAUS43 KMQT 270558
MTRP59
METAR KP59 270551Z AUTO 00000KT 04/04 A2970 RMK AO1 SLP060 P0008
60015 T00440039 10083 20039 58014





000
SAUS43 KMQT 270504 COR
MTRP53
METAR KP53 270456Z AUTO 00000KT 09/07 A2965 RMK AO1 SLP042 T00890072
402330072





000
SAUS43 KMQT 270503 COR
MTRP53
METAR KP53 270456Z AUTO 00000KT 09/07 A2965 RMK AO1 SLP042 T00890072
402330072





000
SAUS43 KMQT 270459
MTRP59
METAR KP59 270451Z AUTO 00000KT 04/03 A2972 RMK AO1 SLP069 P0004
T00390028 401500039





000
SAUS43 KMQT 270459
MTRP59
METAR KP59 270451Z AUTO 00000KT 04/03 A2972 RMK AO1 SLP069 P0004
T00390028 401500039





000
SAUS43 KMQT 270405 COR
MTRP53
METAR KP53 270356Z AUTO 00000KT 08/07 A2968 RMK AO1 SLP054 P0024
T00830067





000
SAUS43 KMQT 270404 COR
MTRP53
METAR KP53 270356Z AUTO 00000KT 08/07 A2968 RMK AO1 SLP054 P0024
T00830067





000
SAUS43 KMQT 270359
MTRP59
METAR KP59 270351Z AUTO 00000KT 04/04 A2974 RMK AO1 SLP078 P0002
T00440039





000
SAUS43 KMQT 270359
MTRP59
METAR KP59 270351Z AUTO 00000KT 04/04 A2974 RMK AO1 SLP078 P0002
T00440039





000
SAUS43 KMQT 270304 COR
MTRP53
METAR KP53 270256Z AUTO 00000KT 07/06 A2971 RMK AO1 SLP063 P0011
60015 T00720061 56014





000
SAUS43 KMQT 270258
MTRP59
METAR KP59 270251Z AUTO 00000KT 06/05 A2974 RMK AO1 SLP074 60001
T00560050 56010





000
SAUS43 KMQT 270204 COR
MTRP53
METAR KP53 270156Z AUTO 04008KT 07/06 A2971 RMK AO1 SLP062 P0001
T00720061





000
SAUS43 KMQT 270157
MTRP59
METAR KP59 270151Z AUTO 00000KT 07/06 A2975 RMK AO1 SLP077 P0001
T00670056





000
SAUS43 KMQT 270103 COR
MTRP53
METAR KP53 270056Z AUTO 32003KT 08/07 A2974 RMK AO1 SLP073 P0003
T00780067





000
SAUS43 KMQT 270057
MTRP59
METAR KP59 270051Z AUTO 00000KT 06/06 A2975 RMK AO1 SLP078 T00610056





000
SAUS43 KMQT 270004 COR
MTRP53
METAR KP53 262356Z AUTO 05003KT 08/07 A2975 RMK AO1 SLP076 60006
T00780067 10122 20078 56028





000
SAUS43 KMQT 262358
MTRP59
METAR KP59 262351Z AUTO 00000KT 08/07 A2977 RMK AO1 SLP083 T00780067
10150 20061 56017





000
SAUS43 KMQT 262303 COR
MTRP53
METAR KP53 262256Z AUTO 00000KT 09/08 A2977 RMK AO1 SLP082 P0004
T00890078





000
SAUS43 KMQT 262303 COR
MTRP53
METAR KP53 262256Z AUTO 00000KT 09/08 A2977 RMK AO1 SLP082 P0004
T00890078





000
SAUS43 KMQT 262259
MTRP59
METAR KP59 262251Z AUTO 04003KT 08/06 A2979 RMK AO1 SLP090 T00780061





000
SAUS43 KMQT 262259
MTRP59
METAR KP59 262251Z AUTO 04003KT 08/06 A2979 RMK AO1 SLP090 T00780061





000
SAUS43 KMQT 262203 COR
MTRP53
METAR KP53 262156Z AUTO 03005KT 10/08 A2981 RMK AO1 SLP095 P0002
T01000083





000
SAUS43 KMQT 262158
MTRP59
METAR KP59 262151Z AUTO 00000KT 12/09 A2980 RMK AO1 SLP092 T01220094





000
SAUS43 KMQT 262105 COR
MTRP53
METAR KP53 262056Z AUTO 04006KT 11/08 A2983 RMK AO1 SLP104 T01060083
56009





000
SAUS43 KMQT 262105 COR
MTRP53
METAR KP53 262056Z AUTO 04006KT 11/08 A2983 RMK AO1 SLP104 T01060083
56009





000
SAUS43 KMQT 262104 COR
MTRP53
METAR KP53 262056Z AUTO 04006KT 11/08 A2983 RMK AO1 SLP104 T01060083
56009





000
SAUS43 KMQT 262058
MTRP59
METAR KP59 262051Z AUTO 00000KT 13/11 A2982 RMK AO1 SLP099 T01330106
56013





000
SAUS43 KMQT 262003 COR
MTRP53
METAR KP53 261956Z AUTO 36003KT 12/09 A2984 RMK AO1 SLP106 T01170094





000
SAUS43 KMQT 261958
MTRP59
METAR KP59 261951Z AUTO 02003KT 12/09 A2983 RMK AO1 SLP104 T01220094





000
SAUS43 KMQT 261904 COR
MTRP53
METAR KP53 261856Z AUTO 34004KT 11/08 A2985 RMK AO1 SLP110 T01060083





000
SAUS43 KMQT 261904 COR
MTRP53
METAR KP53 261856Z AUTO 34004KT 11/08 A2985 RMK AO1 SLP110 T01060083





000
SAUS43 KMQT 261858
MTRP59
METAR KP59 261851Z AUTO 36007KT 11/08 A2984 RMK AO1 SLP107 T01110083





000
SAUS43 KMQT 261804 COR
MTRP53
METAR KP53 261756Z AUTO 34006KT 11/09 A2986 RMK AO1 SLP113 T01110089
10233 20100 51004





000
SAUS43 KMQT 261758
MTRP59
METAR KP59 261751Z AUTO 36007KT 11/09 A2986 RMK AO1 SLP114 T01110089
10117 20078 51007





000
SAUS43 KMQT 261758
MTRP59
METAR KP59 261751Z AUTO 36007KT 11/09 A2986 RMK AO1 SLP114 T01110089
10117 20078 51007





000
SAUS43 KMQT 261704 COR
MTRP53
METAR KP53 261656Z AUTO 00000KT 11/09 A2986 RMK AO1 SLP112 T01110094





000
SAUS43 KMQT 261704 COR
MTRP53
METAR KP53 261656Z AUTO 00000KT 11/09 A2986 RMK AO1 SLP112 T01110094





000
SAUS43 KMQT 261658
MTRP59
METAR KP59 261651Z AUTO 35008KT 11/08 A2986 RMK AO1 SLP113 T01060083





000
SAUS43 KMQT 261658
MTRP59
METAR KP59 261651Z AUTO 35008KT 11/08 A2986 RMK AO1 SLP113 T01060083





000
SAUS43 KMQT 261603 COR
MTRP53
METAR KP53 261556Z AUTO 01003KT 10/08 A2986 RMK AO1 SLP113 T01000083





000
SAUS43 KMQT 261558
MTRP59
METAR KP59 261551Z AUTO 35006KT 08/07 A2985 RMK AO1 SLP114 T00780067





000
SAUS43 KMQT 261504 COR
MTRP53
METAR KP53 261456Z AUTO 02006KT 11/08 A2985 RMK AO1 SLP109 T01110083
53008 $





000
SAUS43 KMQT 261458
MTRP59
METAR KP59 261451Z AUTO 34006KT 09/08 A2984 RMK AO1 SLP108 T00940078
53012





000
SAUS43 KMQT 261458
MTRP59
METAR KP59 261451Z AUTO 34006KT 09/08 A2984 RMK AO1 SLP108 T00940078
53012





000
SAUS43 KMQT 261404 COR
MTRP53
METAR KP53 261356Z AUTO 19007KT 22/17 A2983 RMK AO1 SLP100 T02220172





000
SAUS43 KMQT 261358
MTRP59
METAR KP59 261351Z AUTO 34005KT 09/08 A2983 RMK AO1 SLP104 T00940083





000
SAUS43 KMQT 261304 COR
MTRP53
METAR KP53 261256Z AUTO 21010KT 20/16 A2983 RMK AO1 SLP100 T02000161





000
SAUS43 KMQT 261258
MTRP59
METAR KP59 261251Z AUTO 35015KT 11/09 A2981 RMK AO1 SLP098 T01060094





000
SAUS43 KMQT 261204 COR
MTRP53
METAR KP53 261156Z AUTO 21008KT 18/16 A2982 RMK AO1 SLP098 70049
T01830156 10183 20167 53006





000
SAUS43 KMQT 261204 COR
MTRP53
METAR KP53 261156Z AUTO 21008KT 18/16 A2982 RMK AO1 SLP098 70049
T01830156 10183 20167 53006





000
SAUS43 KMQT 261158
MTRP59
METAR KP59 261151Z AUTO 34008KT 11/10 A2980 RMK AO1 SLP095 70096
T01110100 10117 20050 53013





000
SAUS43 KMQT 261158
MTRP59
METAR KP59 261151Z AUTO 34008KT 11/10 A2980 RMK AO1 SLP095 70096
T01110100 10117 20050 53013





000
SAUS43 KMQT 261104 COR
MTRP53
METAR KP53 261056Z AUTO 20008KT 17/15 A2981 RMK AO1 SLP093 T01720150





000
SAUS43 KMQT 261104 COR
MTRP53
METAR KP53 261056Z AUTO 20008KT 17/15 A2981 RMK AO1 SLP093 T01720150





000
SAUS43 KMQT 261058
MTRP59
METAR KP59 261051Z AUTO VRB05KT 11/10 A2979 RMK AO1 SLP091 T01110100





000
SAUS43 KMQT 261005 COR
MTRP53
METAR KP53 260956Z AUTO 20007KT 17/15 A2980 RMK AO1 SLP092 T01670150





000
SAUS43 KMQT 261004 COR
MTRP53
METAR KP53 260956Z AUTO 20007KT 17/15 A2980 RMK AO1 SLP092 T01670150





000
SAUS43 KMQT 261004 COR
MTRP53
METAR KP53 260956Z AUTO 20007KT 17/15 A2980 RMK AO1 SLP092 T01670150





000
SAUS43 KMQT 260958
MTRP59
METAR KP59 260951Z AUTO 34009G16KT 10/09 A2977 RMK AO1 SLP084
T01000094





000
SAUS43 KMQT 260903 COR
MTRP53
METAR KP53 260856Z AUTO 19006KT 18/15 A2980 RMK AO1 SLP092 T01780150
53009





000
SAUS43 KMQT 260857
MTRP59
METAR KP59 260851Z AUTO 32008KT 280V350 09/08 A2976 RMK AO1 SLP081
T00940083 53013





000
SAUS43 KMQT 260803 COR
MTRP53
METAR KP53 260756Z AUTO 19007KT 17/14 A2980 RMK AO1 SLP090 T01670144





000
SAUS43 KMQT 260759
MTRP59
METAR KP59 260751Z AUTO 00000KT 06/06 A2974 RMK AO1 SLP074 T00610056





000
SAUS43 KMQT 260759
MTRP59
METAR KP59 260751Z AUTO 00000KT 06/06 A2974 RMK AO1 SLP074 T00610056





000
SAUS43 KMQT 260705 COR
MTRP53
METAR KP53 260656Z AUTO 19006KT 17/15 A2978 RMK AO1 SLP083 T01670150





000
SAUS43 KMQT 260705 COR
MTRP53
METAR KP53 260656Z AUTO 19006KT 17/15 A2978 RMK AO1 SLP083 T01670150





000
SAUS43 KMQT 260704 COR
MTRP53
METAR KP53 260656Z AUTO 19006KT 17/15 A2978 RMK AO1 SLP083 T01670150





000
SAUS43 KMQT 260704 COR
MTRP53
METAR KP53 260656Z AUTO 19006KT 17/15 A2978 RMK AO1 SLP083 T01670150





000
SAUS43 KMQT 260658
MTRP59
METAR KP59 260651Z AUTO 36006KT 05/04 A2974 RMK AO1 SLP073 T00500039





000
SAUS43 KMQT 260658
MTRP59
METAR KP59 260651Z AUTO 36006KT 05/04 A2974 RMK AO1 SLP073 T00500039





000
SAUS43 KMQT 260603 COR
MTRP53
METAR KP53 260556Z AUTO 19005KT 18/16 A2978 RMK AO1 SLP083 T01780156
10206 20111 53006





000
SAUS43 KMQT 260559
MTRP59
METAR KP59 260551Z AUTO 00000KT 08/07 A2973 RMK AO1 SLP069 T00780067
10078 20056 50005





000
SAUS43 KMQT 260559
MTRP59
METAR KP59 260551Z AUTO 00000KT 08/07 A2973 RMK AO1 SLP069 T00780067
10078 20056 50005





000
SAUS43 KMQT 260504 COR
MTRP53
METAR KP53 260456Z AUTO 18006KT 17/16 A2977 RMK AO1 SLP081 T01720156
402060111





000
SAUS43 KMQT 260504 COR
MTRP53
METAR KP53 260456Z AUTO 18006KT 17/16 A2977 RMK AO1 SLP081 T01720156
402060111





000
SAUS43 KMQT 260459
MTRP59
METAR KP59 260451Z AUTO 36003KT 07/06 A2973 RMK AO1 SLP071 T00670056
401720056





000
SAUS43 KMQT 260459
MTRP59
METAR KP59 260451Z AUTO 36003KT 07/06 A2973 RMK AO1 SLP071 T00670056
401720056





000
SAUS43 KMQT 260403 COR
MTRP53
METAR KP53 260356Z AUTO 22003KT 12/11 A2976 RMK AO1 SLP077 T01170111





000
SAUS43 KMQT 260359
MTRP59
METAR KP59 260351Z AUTO 00000KT 07/06 A2972 RMK AO1 SLP067 T00670056





000
SAUS43 KMQT 260303 COR
MTRP53
METAR KP53 260256Z AUTO 00000KT 14/13 A2976 RMK AO1 SLP078 T01390128
53017





000
SAUS43 KMQT 260303 COR
MTRP53
METAR KP53 260256Z AUTO 00000KT 14/13 A2976 RMK AO1 SLP078 T01390128
53017





000
SAUS43 KMQT 260259
MTRP59
METAR KP59 260251Z AUTO 00000KT 06/05 A2971 RMK AO1 SLP063 T00560050
53005





000
SAUS43 KMQT 260205 COR
MTRP53
METAR KP53 260156Z AUTO 20003KT 19/17 A2974 RMK AO1 SLP071 T01890172





000
SAUS43 KMQT 260204 COR
MTRP53
METAR KP53 260156Z AUTO 20003KT 19/17 A2974 RMK AO1 SLP071 T01890172





000
SAUS43 KMQT 260158
MTRP59
METAR KP59 260151Z AUTO 00000KT 07/06 A2969 RMK AO1 SLP057 T00670056





000
SAUS43 KMQT 260104 COR
MTRP53
METAR KP53 260056Z AUTO 19004KT 20/17 A2972 RMK AO1 SLP063 T02000172





000
SAUS43 KMQT 260104 COR
MTRP53
METAR KP53 260056Z AUTO 19004KT 20/17 A2972 RMK AO1 SLP063 T02000172





000
SAUS43 KMQT 260058
MTRP59
METAR KP59 260051Z AUTO 00000KT 07/06 A2970 RMK AO1 SLP058 T00670056





000
SAUS43 KMQT 260004 COR
MTRP53
METAR KP53 252356Z AUTO 18005KT 21/17 A2971 RMK AO1 SLP060 60007
T02060172 10206 20161 53011





000
SAUS43 KMQT 252358
MTRP59
METAR KP59 252351Z AUTO 00000KT 07/06 A2970 RMK AO1 SLP059 P0001
60052 T00670056 10117 20067 51012





000
SAUS43 KMQT 252304 COR
MTRP53
METAR KP53 252256Z AUTO 19006KT 20/17 A2969 RMK AO1 SLP055 T02000167





000
SAUS43 KMQT 252258
MTRP59
METAR KP59 252251Z AUTO VRB03KT 07/06 A2969 RMK AO1 SLP054 P0007
T00670056





000
SAUS43 KMQT 252258
MTRP59
METAR KP59 252251Z AUTO VRB03KT 07/06 A2969 RMK AO1 SLP054 P0007
T00670056





000
SAUS43 KMQT 252203 COR
MTRP53
METAR KP53 252156Z AUTO 19009KT 18/16 A2968 RMK AO1 SLP052 T01780156





000
SAUS43 KMQT 252158
MTRP59
METAR KP59 252151Z AUTO 04003KT 09/09 A2968 RMK AO1 SLP053 P0010
T00940089





000
SAUS43 KMQT 252103 COR
MTRP53
METAR KP53 252056Z AUTO 19009KT 18/16 A2967 RMK AO1 SLP049 60007
T01780156 55005





000
SAUS43 KMQT 252058
MTRP59
METAR KP59 252051Z AUTO VRB04KT 12/10 A2966 RMK AO1 SLP045 P0016
60034 T01170100 56017





    US Dept of Commerce
    National Oceanic and Atmospheric Administration
    National Weather Service
    1325 East West Highway
    Silver Spring, MD 20910
    Page Author: NWS Internet Services Team
Disclaimer
Information Quality
Credits
Glossary
Privacy Policy
Freedom of Information Act (FOIA)
About Us
Career Opportunities